createdAt,value
2023-02-17T00:00:20.766Z,34.80
2023-02-17T00:05:51.093Z,32.90
2023-02-17T00:08:24.758Z,32.10
2023-02-17T00:11:02.407Z,33.10
2023-02-17T00:13:35.871Z,35.80
2023-02-17T00:16:14.705Z,36.70
2023-02-17T00:18:48.518Z,32.90
2023-02-17T00:21:24.084Z,34.20
2023-02-17T00:23:58.801Z,35.10
2023-02-17T00:26:42.849Z,34.10
2023-02-17T00:29:17.009Z,32.00
2023-02-17T00:31:51.452Z,31.90
2023-02-17T00:34:25.400Z,31.90
2023-02-17T00:36:59.163Z,34.00
2023-02-17T00:39:35.462Z,34.30
2023-02-17T00:42:09.416Z,34.10
2023-02-17T00:44:52.662Z,33.30
2023-02-17T00:47:27.561Z,32.60
2023-02-17T00:50:02.086Z,31.70
2023-02-17T00:52:56.249Z,35.00
2023-02-17T00:55:29.836Z,33.40
2023-02-17T00:58:03.496Z,33.90
2023-02-17T01:00:37.401Z,33.70
2023-02-17T01:03:14.096Z,35.10
2023-02-17T01:05:51.548Z,33.60
2023-02-17T01:08:25.743Z,31.80
2023-02-17T01:10:59.552Z,33.30
2023-02-17T01:13:33.449Z,32.40
2023-02-17T01:16:08.308Z,32.40
2023-02-17T01:18:42.387Z,34.80
2023-02-17T01:21:28.642Z,32.90
2023-02-17T01:24:07.047Z,32.70
2023-02-17T01:26:44.910Z,34.30
2023-02-17T01:29:22.142Z,33.20
2023-02-17T01:32:08.023Z,31.70
2023-02-17T01:34:42.424Z,30.60
2023-02-17T01:37:37.367Z,32.00
2023-02-17T01:40:15.818Z,33.70
2023-02-17T01:42:53.582Z,32.80
2023-02-17T01:45:52.757Z,32.30
2023-02-17T01:51:06.767Z,33.20
2023-02-17T01:53:45.561Z,31.50
2023-02-17T01:56:31.869Z,30.60
2023-02-17T01:59:09.811Z,30.70
2023-02-17T02:01:47.247Z,32.90
2023-02-17T02:04:25.022Z,32.90
2023-02-17T02:06:59.952Z,34.10
2023-02-17T02:09:38.685Z,33.00
2023-02-17T02:12:25.474Z,32.70
2023-02-17T02:15:01.663Z,31.30
2023-02-17T02:17:44.621Z,33.80
2023-02-17T02:20:55.578Z,30.60
2023-02-17T02:23:56.042Z,32.50
2023-02-17T02:27:11.020Z,33.00
2023-02-17T02:30:36.294Z,32.50
2023-02-17T02:33:16.861Z,32.70
2023-02-17T02:36:00.880Z,31.10
2023-02-17T02:39:00.959Z,31.90
2023-02-17T02:41:41.556Z,29.20
2023-02-17T02:44:20.276Z,31.60
2023-02-17T02:47:07.179Z,34.40
2023-02-17T02:49:41.646Z,32.30
2023-02-17T02:52:24.723Z,32.60
2023-02-17T02:55:27.494Z,29.50
2023-02-17T02:58:12.408Z,31.70
2023-02-17T03:00:56.996Z,30.60
2023-02-17T03:04:02.025Z,31.60
2023-02-17T03:06:46.355Z,31.00
2023-02-17T03:09:41.457Z,30.90
2023-02-17T03:12:15.655Z,34.20
2023-02-17T03:14:52.199Z,32.30
2023-02-17T03:17:25.850Z,31.70
2023-02-17T03:19:59.929Z,32.00
2023-02-17T03:22:37.126Z,29.90
2023-02-17T03:25:11.968Z,29.40
2023-02-17T03:27:55.584Z,32.30
2023-02-17T03:30:32.219Z,31.30
2023-02-17T03:33:06.561Z,30.80
2023-02-17T03:35:40.864Z,31.40
2023-02-17T03:38:14.880Z,32.60
2023-02-17T03:40:58.721Z,29.60
2023-02-17T03:43:32.309Z,31.20
2023-02-17T03:46:06.372Z,30.30
2023-02-17T03:48:40.082Z,32.40
2023-02-17T03:51:19.565Z,31.80
2023-02-17T03:53:56.134Z,31.40
2023-02-17T03:56:30.366Z,33.40
2023-02-17T03:59:04.402Z,31.30
2023-02-17T04:01:38.439Z,31.40
2023-02-17T04:04:32.671Z,29.20
2023-02-17T04:07:06.314Z,30.00
2023-02-17T04:09:40.931Z,29.80
2023-02-17T04:12:14.723Z,30.40
2023-02-17T04:14:48.696Z,31.00
2023-02-17T04:17:24.960Z,31.60
2023-02-17T04:19:59.090Z,32.40
2023-02-17T04:22:33.075Z,30.40
2023-02-17T04:25:08.202Z,29.90
2023-02-17T04:27:44.309Z,29.70
2023-02-17T04:30:19.400Z,28.90
2023-02-17T04:32:53.343Z,31.00
2023-02-17T04:35:27.838Z,30.60
2023-02-17T04:38:01.406Z,31.10
2023-02-17T04:40:35.394Z,33.30
2023-02-17T04:43:30.370Z,31.00
2023-02-17T04:46:04.920Z,29.50
2023-02-17T04:48:42.321Z,30.80
2023-02-17T04:51:16.344Z,29.80
2023-02-17T04:53:50.043Z,29.70
2023-02-17T04:56:23.908Z,32.50
2023-02-17T04:59:17.879Z,31.90
2023-02-17T05:01:51.816Z,31.80
2023-02-17T05:04:35.932Z,32.30
2023-02-17T05:07:13.798Z,32.00
2023-02-17T05:09:47.707Z,30.70
2023-02-17T05:12:21.064Z,33.70
2023-02-17T05:15:05.788Z,32.40
2023-02-17T05:17:39.535Z,35.00
2023-02-17T05:20:15.076Z,33.40
2023-02-17T05:22:58.687Z,34.90
2023-02-17T05:25:33.119Z,36.70
2023-02-17T05:28:07.280Z,34.70
2023-02-17T05:31:02.078Z,33.10
2023-02-17T05:33:36.592Z,32.30
2023-02-17T05:36:13.160Z,33.10
2023-02-17T05:38:56.706Z,35.00
2023-02-17T05:41:30.661Z,34.20
2023-02-17T05:44:08.014Z,34.00
2023-02-17T05:46:41.771Z,35.80
2023-02-17T05:49:16.271Z,35.10
2023-02-17T05:51:50.352Z,36.00
2023-02-17T05:54:24.129Z,35.70
2023-02-17T05:56:58.058Z,35.20
2023-02-17T05:59:32.171Z,33.80
2023-02-17T06:02:06.771Z,32.90
2023-02-17T06:04:40.765Z,32.80
2023-02-17T06:07:14.335Z,30.60
2023-02-17T06:09:48.033Z,31.70
2023-02-17T06:12:21.875Z,30.20
2023-02-17T06:14:55.990Z,31.60
2023-02-17T06:17:29.670Z,30.90
2023-02-17T06:20:03.856Z,30.30
2023-02-17T06:22:37.653Z,31.90
2023-02-17T06:25:13.932Z,33.20
2023-02-17T06:27:47.805Z,33.30
2023-02-17T06:30:22.006Z,31.70
2023-02-17T06:32:55.974Z,33.20
2023-02-17T06:35:30.061Z,31.50
2023-02-17T06:38:04.313Z,32.30
2023-02-17T06:40:38.253Z,31.90
2023-02-17T06:43:12.313Z,33.00
2023-02-17T06:45:48.961Z,29.80
2023-02-17T06:48:22.723Z,30.10
2023-02-17T06:50:56.692Z,31.80
2023-02-17T06:53:51.086Z,34.00
2023-02-17T06:56:24.763Z,32.00
2023-02-17T06:58:58.771Z,32.90
2023-02-17T07:01:32.254Z,30.10
2023-02-17T07:04:06.028Z,28.50
2023-02-17T07:06:43.255Z,32.30
2023-02-17T07:09:17.289Z,33.20
2023-02-17T07:11:51.441Z,31.60
2023-02-17T07:14:25.145Z,31.80
2023-02-17T07:17:09.866Z,30.40
2023-02-17T07:19:43.888Z,30.80
2023-02-17T07:22:17.626Z,30.00
2023-02-17T07:24:52.215Z,30.30
2023-02-17T07:27:26.093Z,31.60
2023-02-17T07:30:12.989Z,32.80
2023-02-17T07:32:46.839Z,33.90
2023-02-17T07:35:23.488Z,31.40
2023-02-17T07:37:58.398Z,31.60
2023-02-17T07:40:32.431Z,30.40
2023-02-17T07:43:09.356Z,29.90
2023-02-17T07:45:46.120Z,31.50
2023-02-17T07:48:23.638Z,32.10
2023-02-17T07:50:58.293Z,32.60
2023-02-17T07:53:42.205Z,30.40
2023-02-17T07:56:16.959Z,30.20
2023-02-17T07:59:01.124Z,31.00
2023-02-17T08:01:34.690Z,31.60
2023-02-17T08:04:08.522Z,31.20
2023-02-17T08:06:42.664Z,32.60
2023-02-17T08:09:33.754Z,28.90
2023-02-17T08:12:36.948Z,29.00
2023-02-17T08:15:12.659Z,29.30
2023-02-17T08:20:27.793Z,31.70
2023-02-17T08:23:01.382Z,30.90
2023-02-17T08:25:37.299Z,31.30
2023-02-17T08:28:13.054Z,28.60
2023-02-17T08:30:49.658Z,28.90
2023-02-17T08:33:23.205Z,27.70
2023-02-17T08:35:56.610Z,30.90
2023-02-17T08:38:30.243Z,29.30
2023-02-17T08:41:04.155Z,31.10
2023-02-17T08:43:37.796Z,29.50
2023-02-17T08:46:13.082Z,30.80
2023-02-17T08:48:58.215Z,30.60
2023-02-17T08:51:43.229Z,29.20
2023-02-17T08:54:17.198Z,29.50
2023-02-17T08:57:11.156Z,29.40
2023-02-17T08:59:56.353Z,30.30
2023-02-17T09:02:29.761Z,31.30
2023-02-17T09:05:04.075Z,31.00
2023-02-17T09:07:40.449Z,28.70
2023-02-17T09:10:17.620Z,30.80
2023-02-17T09:12:52.308Z,28.50
2023-02-17T09:15:26.049Z,27.90
2023-02-17T09:17:59.717Z,30.30
2023-02-17T09:20:41.175Z,31.80
2023-02-17T09:23:14.750Z,29.10
2023-02-17T09:26:24.507Z,30.50
2023-02-17T09:28:58.542Z,30.00
2023-02-17T09:31:32.566Z,28.30
2023-02-17T09:34:06.956Z,33.20
2023-02-17T09:36:42.799Z,31.70
2023-02-17T09:39:18.950Z,31.00
2023-02-17T09:41:55.570Z,31.50
2023-02-17T09:44:35.876Z,31.00
2023-02-17T09:47:23.431Z,29.60
2023-02-17T09:50:02.358Z,29.70
2023-02-17T09:52:40.523Z,30.90
2023-02-17T09:55:18.359Z,36.20
2023-02-17T09:57:59.093Z,34.70
2023-02-17T10:00:35.798Z,29.50
2023-02-17T10:03:17.909Z,28.20
2023-02-17T10:06:01.877Z,28.10
2023-02-17T10:08:42.567Z,30.60
2023-02-17T10:11:23.684Z,28.00
2023-02-17T10:14:00.459Z,28.60
2023-02-17T10:16:38.155Z,27.80
2023-02-17T10:19:17.889Z,30.90
2023-02-17T10:21:59.109Z,28.80
2023-02-17T10:24:32.697Z,32.90
2023-02-17T10:27:24.087Z,32.10
2023-02-17T10:30:12.518Z,30.60
2023-02-17T10:33:00.838Z,30.10
2023-02-17T10:35:53.031Z,28.10
2023-02-17T10:38:48.726Z,27.10
2023-02-17T10:41:27.508Z,27.60
2023-02-17T10:44:15.550Z,27.60
2023-02-17T10:49:28.678Z,29.80
2023-02-17T10:52:05.040Z,30.70
2023-02-17T10:54:45.868Z,27.50
2023-02-17T10:57:21.700Z,28.80
2023-02-17T10:59:55.871Z,29.20
2023-02-17T11:02:38.528Z,30.10
2023-02-17T11:05:21.894Z,29.90
2023-02-17T11:07:59.749Z,29.00
2023-02-17T11:10:36.584Z,29.10
2023-02-17T11:13:32.593Z,27.00
2023-02-17T11:16:07.150Z,28.80
2023-02-17T11:18:49.233Z,27.20
2023-02-17T11:21:23.466Z,29.00
2023-02-17T11:24:02.432Z,29.80
2023-02-17T11:29:18.038Z,24.80
2023-02-17T11:32:05.393Z,28.00
2023-02-17T11:34:44.531Z,27.80
2023-02-17T11:37:27.364Z,29.10
2023-02-17T11:40:27.371Z,28.60
2023-02-17T11:43:03.639Z,28.40
2023-02-17T11:45:44.727Z,26.70
2023-02-17T11:48:44.314Z,24.50
2023-02-17T11:51:24.880Z,26.20
2023-02-17T11:54:07.168Z,26.60
2023-02-17T11:56:43.733Z,25.60
2023-02-17T11:59:53.753Z,23.10
2023-02-17T12:02:46.468Z,25.20
2023-02-17T12:05:27.754Z,27.00
2023-02-17T12:08:13.079Z,26.10
2023-02-17T12:11:09.938Z,25.50
2023-02-17T12:13:57.812Z,26.70
2023-02-17T12:16:50.725Z,26.80
2023-02-17T12:19:47.520Z,26.20
2023-02-17T12:22:37.723Z,27.20
2023-02-17T12:25:29.346Z,26.80
2023-02-17T12:28:34.514Z,23.60
2023-02-17T12:31:20.787Z,25.90
2023-02-17T12:34:11.639Z,27.00
2023-02-17T12:36:58.056Z,24.60
2023-02-17T12:39:43.395Z,25.80
2023-02-17T12:42:32.600Z,22.20
2023-02-17T12:45:17.860Z,24.10
2023-02-17T12:47:59.879Z,25.10
2023-02-17T12:50:39.150Z,22.60
2023-02-17T12:53:21.956Z,24.30
2023-02-17T12:55:59.550Z,23.30
2023-02-17T12:58:44.815Z,21.50
2023-02-17T13:01:22.162Z,22.80
2023-02-17T13:03:56.637Z,23.10
2023-02-17T13:06:38.741Z,22.70
2023-02-17T13:09:26.442Z,21.40
2023-02-17T13:12:12.135Z,24.20
2023-02-17T13:14:47.681Z,20.90
2023-02-17T13:17:30.400Z,23.00
2023-02-17T13:23:28.316Z,20.20
2023-02-17T13:26:31.581Z,18.00
2023-02-17T13:29:37.540Z,18.20
2023-02-17T13:32:14.954Z,18.00
2023-02-17T13:35:00.749Z,18.50
2023-02-17T13:37:45.080Z,19.70
2023-02-17T13:40:39.562Z,18.30
2023-02-17T13:43:24.496Z,16.70
2023-02-17T13:46:03.192Z,19.40
2023-02-17T13:48:37.767Z,18.80
2023-02-17T13:51:29.371Z,18.60
2023-02-17T13:54:10.099Z,18.00
2023-02-17T13:56:43.672Z,23.30
2023-02-17T13:59:25.622Z,19.90
2023-02-17T14:02:00.587Z,20.50
2023-02-17T14:04:35.356Z,20.20
2023-02-17T14:07:10.248Z,19.20
2023-02-17T14:09:54.513Z,16.60
2023-02-17T14:12:28.920Z,19.30
2023-02-17T14:15:03.090Z,18.20
2023-02-17T14:17:38.439Z,18.50
2023-02-17T14:20:33.414Z,18.00
2023-02-17T14:23:12.758Z,19.40
2023-02-17T14:25:47.398Z,18.30
2023-02-17T14:28:26.098Z,17.40
2023-02-17T14:31:10.653Z,18.40
2023-02-17T14:33:57.091Z,17.30
2023-02-17T14:36:34.307Z,15.40
2023-02-17T14:39:10.924Z,16.60
2023-02-17T14:41:45.897Z,16.10
2023-02-17T14:44:20.459Z,16.50
2023-02-17T14:46:55.718Z,17.00
2023-02-17T14:49:30.715Z,16.20
2023-02-17T14:52:23.652Z,16.50
2023-02-17T14:55:00.750Z,16.40
2023-02-17T14:57:34.932Z,21.60
2023-02-17T15:00:16.218Z,20.40
2023-02-17T15:02:51.687Z,19.10
2023-02-17T15:05:27.497Z,17.60
2023-02-17T15:08:04.896Z,17.90
2023-02-17T15:10:40.506Z,18.90
2023-02-17T15:13:19.621Z,17.30
2023-02-17T15:15:53.753Z,18.10
2023-02-17T15:18:28.588Z,20.00
2023-02-17T15:21:02.867Z,18.60
2023-02-17T15:23:45.831Z,18.80
2023-02-17T15:26:20.860Z,17.90
2023-02-17T15:28:59.598Z,21.30
2023-02-17T15:31:36.612Z,20.60
2023-02-17T15:34:16.892Z,19.30
2023-02-17T15:36:54.445Z,20.30
2023-02-17T15:39:31.787Z,19.50
2023-02-17T15:42:14.573Z,21.40
2023-02-17T15:44:51.557Z,18.90
2023-02-17T15:47:25.492Z,22.20
2023-02-17T15:50:00.997Z,21.10
2023-02-17T15:52:39.499Z,18.00
2023-02-17T15:57:51.217Z,17.70
2023-02-17T16:00:28.388Z,16.40
2023-02-17T16:03:07.259Z,17.10
2023-02-17T16:05:43.859Z,17.40
2023-02-17T16:08:18.308Z,15.10
2023-02-17T16:10:54.658Z,15.30
2023-02-17T16:13:31.275Z,16.90
2023-02-17T16:16:10.932Z,15.60
2023-02-17T16:18:44.806Z,17.80
2023-02-17T16:21:19.557Z,15.20
2023-02-17T16:23:59.681Z,14.60
2023-02-17T16:26:38.217Z,14.10
2023-02-17T16:29:19.194Z,14.80
2023-02-17T16:31:56.340Z,15.40
2023-02-17T16:34:43.236Z,15.00
2023-02-17T16:37:21.681Z,14.30
2023-02-17T16:42:29.861Z,13.50
2023-02-17T16:45:06.003Z,13.60
2023-02-17T16:47:50.096Z,14.40
2023-02-17T16:50:27.082Z,14.90
2023-02-17T16:53:14.720Z,14.90
2023-02-17T16:55:52.008Z,12.50
2023-02-17T16:58:32.334Z,13.20
2023-02-17T17:01:13.110Z,13.40
2023-02-17T17:03:49.248Z,12.10
2023-02-17T17:06:30.078Z,13.10
2023-02-17T17:09:05.756Z,14.10
2023-02-17T17:11:41.148Z,13.50
2023-02-17T17:14:21.432Z,15.80
2023-02-17T17:17:10.019Z,16.20
2023-02-17T17:19:52.068Z,18.60
2023-02-17T17:22:38.711Z,13.50
2023-02-17T17:25:21.789Z,15.30
2023-02-17T17:27:58.781Z,12.80
2023-02-17T17:30:48.827Z,12.80
2023-02-17T17:33:26.623Z,12.10
2023-02-17T17:36:04.216Z,12.70
2023-02-17T17:38:41.271Z,11.20
2023-02-17T17:41:21.434Z,11.70
2023-02-17T17:43:58.343Z,11.90
2023-02-17T17:46:42.070Z,11.40
2023-02-17T17:49:26.158Z,12.00
2023-02-17T17:52:03.346Z,11.10
2023-02-17T17:54:39.461Z,11.50
2023-02-17T17:57:18.028Z,10.20
2023-02-17T17:59:55.880Z,10.50
2023-02-17T18:02:33.749Z,11.20
2023-02-17T18:05:13.235Z,11.40
2023-02-17T18:07:55.314Z,9.50
2023-02-17T18:10:31.760Z,9.60
2023-02-17T18:13:07.728Z,9.80
2023-02-17T18:15:44.865Z,9.10
2023-02-17T18:18:21.733Z,9.00
2023-02-17T18:20:59.594Z,9.20
2023-02-17T18:23:37.620Z,8.70
2023-02-17T18:26:14.542Z,9.10
2023-02-17T18:28:51.290Z,9.90
2023-02-17T18:31:30.386Z,9.30
2023-02-17T18:34:08.984Z,9.60
2023-02-17T18:36:48.588Z,11.20
2023-02-17T18:39:26.553Z,9.90
2023-02-17T18:42:05.026Z,9.50
2023-02-17T18:44:42.699Z,9.80
2023-02-17T18:47:20.946Z,9.80
2023-02-17T18:50:20.670Z,9.90
2023-02-17T18:52:57.855Z,9.10
2023-02-17T18:55:37.263Z,9.50
2023-02-17T18:58:13.477Z,10.60
2023-02-17T19:00:55.202Z,9.90
2023-02-17T19:03:39.004Z,11.10
2023-02-17T19:06:34.420Z,11.30
2023-02-17T19:09:13.110Z,10.70
2023-02-17T19:11:56.834Z,10.90
2023-02-17T19:14:36.414Z,12.60
2023-02-17T19:17:24.474Z,11.40
2023-02-17T19:20:15.633Z,11.00
2023-02-17T19:22:52.507Z,13.00
2023-02-17T19:25:30.745Z,11.50
2023-02-17T19:28:07.229Z,11.30
2023-02-17T19:30:45.923Z,17.80
2023-02-17T19:33:22.455Z,11.00
2023-02-17T19:36:02.815Z,10.30
2023-02-17T19:38:41.734Z,11.80
2023-02-17T19:41:37.141Z,10.70
2023-02-17T19:44:21.780Z,10.90
2023-02-17T19:47:08.278Z,10.40
2023-02-17T19:49:49.719Z,10.40
2023-02-17T19:52:31.274Z,10.70
2023-02-17T19:55:11.193Z,12.20
2023-02-17T19:57:56.752Z,11.50
2023-02-17T20:00:42.472Z,11.10
2023-02-17T20:03:24.780Z,11.40
2023-02-17T20:06:11.512Z,10.80
2023-02-17T20:08:50.794Z,11.00
2023-02-17T20:11:47.147Z,11.40
2023-02-17T20:14:55.931Z,11.00
2023-02-17T20:17:33.983Z,11.40
2023-02-17T20:20:21.054Z,10.30
2023-02-17T20:22:58.030Z,11.70
2023-02-17T20:25:34.626Z,11.20
2023-02-17T20:28:12.103Z,11.70
2023-02-17T20:30:52.688Z,10.40
2023-02-17T20:33:39.211Z,11.10
2023-02-17T20:36:19.293Z,11.00
2023-02-17T20:38:56.003Z,9.90
2023-02-17T20:41:35.578Z,11.10
2023-02-17T20:44:13.388Z,10.50
2023-02-17T20:46:50.391Z,10.10
2023-02-17T20:49:29.658Z,10.20
2023-02-17T20:52:06.544Z,10.30
2023-02-17T20:54:59.633Z,10.00
2023-02-17T20:57:36.420Z,9.90
2023-02-17T21:00:24.880Z,10.50
2023-02-17T21:03:03.347Z,9.90
2023-02-17T21:05:53.307Z,10.00
2023-02-17T21:08:33.396Z,9.20
2023-02-17T21:11:14.015Z,9.00
2023-02-17T21:13:51.467Z,9.40
2023-02-17T21:16:31.400Z,9.90
2023-02-17T21:19:10.773Z,9.30
2023-02-17T21:21:47.925Z,9.40
2023-02-17T21:24:27.112Z,8.20
2023-02-17T21:27:02.402Z,8.10
2023-02-17T21:29:44.154Z,7.30
2023-02-17T21:32:21.978Z,6.70
2023-02-17T21:34:58.025Z,6.90
2023-02-17T21:37:35.288Z,6.70
2023-02-17T21:40:13.582Z,6.40
2023-02-17T21:43:05.106Z,6.90
2023-02-17T21:45:45.533Z,5.70
2023-02-17T21:48:19.347Z,4.80
2023-02-17T21:51:09.648Z,4.90
2023-02-17T21:53:46.236Z,4.60
2023-02-17T21:56:21.177Z,4.20
2023-02-17T21:58:59.354Z,4.00
2023-02-17T22:01:34.568Z,4.00
2023-02-17T22:04:17.435Z,3.90
2023-02-17T22:06:52.497Z,3.90
2023-02-17T22:09:26.309Z,3.50
2023-02-17T22:11:59.792Z,3.10
2023-02-17T22:14:33.755Z,2.70
2023-02-17T22:17:07.814Z,3.10
2023-02-17T22:19:41.291Z,3.50
2023-02-17T22:22:17.676Z,3.60
2023-02-17T22:24:51.219Z,3.90
2023-02-17T22:27:36.931Z,3.20
2023-02-17T22:30:14.329Z,2.60
2023-02-17T22:32:50.558Z,2.90
2023-02-17T22:35:24.061Z,2.50
2023-02-17T22:38:00.377Z,2.20
2023-02-17T22:40:34.404Z,2.10
2023-02-17T22:43:10.195Z,2.20
2023-02-17T22:45:43.842Z,2.80
2023-02-17T22:48:17.304Z,2.90
2023-02-17T22:50:51.243Z,2.80
2023-02-17T22:53:25.165Z,2.70
2023-02-17T22:56:00.097Z,3.20
2023-02-17T22:58:38.107Z,3.20
2023-02-17T23:01:14.052Z,3.10
2023-02-17T23:03:53.702Z,3.10
2023-02-17T23:06:33.044Z,2.70
2023-02-17T23:09:18.922Z,3.50
2023-02-17T23:11:55.856Z,3.70
2023-02-17T23:14:33.260Z,2.60
2023-02-17T23:17:11.925Z,3.20
2023-02-17T23:19:45.485Z,2.80
2023-02-17T23:22:20.427Z,2.20
2023-02-17T23:24:54.137Z,2.20
2023-02-17T23:27:30.761Z,2.40
2023-02-17T23:30:04.287Z,2.10
2023-02-17T23:32:41.002Z,1.90
2023-02-17T23:35:18.063Z,2.10
2023-02-17T23:37:52.930Z,1.70
2023-02-17T23:40:30.799Z,1.60
2023-02-17T23:43:05.680Z,1.60
2023-02-17T23:45:41.290Z,1.70
2023-02-17T23:48:14.917Z,1.80
2023-02-17T23:50:56.774Z,1.90
2023-02-17T23:53:30.731Z,1.70
2023-02-17T23:56:10.602Z,1.50
2023-02-17T23:58:47.894Z,2.50
